Weather in selectable METAR weather stations

1) Select the Continent / Group:

[Europe]  [Asia]  [Africa]  [North America]  [South America]  
[Central America and Caribbean]  [Oceania]  [Antarctica]  
2) Select the Weather station (City):


METAR = MYNN 131600Z 21006KT 150V250 9999 SCT018 30/23 A3005

STATIONMYNN
NAMENassau Intl, NP, BA
OBSERVED13.05.2021 12:00 (13.05.2021 16:00 UTC), 0 min ago
TEMPERATURE30.0°C ( 86°F)
WINDSSW (210 degrees) at 7 MPH (6 knots; 3.1 m/s)
HUMIDITY66%
HEATINDEX33.9°C (93°F)
PRESSURE1017.6 hPa
Click here to search the weather station or to give the station identifier
(four-character ICAO Location Indicator) for weather data.